Terminal Aerodrome Forecast
Issued by NWS Charleston, WV

Current Version | Previous Version | Text Only | Print | Product List | Glossary Off
Versions: 1 2 3 4 5 6 7 8 9 10 11 12 13 14 15 16 17 18 19 20 21 22 23 24

000
FTUS41 KRLX 271354 AAA
TAFHTS
TAF AMD
KHTS 271354Z 2714/2812 VRB03KT 3SM -RA BR BKN020 OVC060
     FM271500 02004KT 5SM BR OVC025
     FM271900 00000KT 4SM SHRA VCTS BKN030CB
     FM272300 VRB04KT P6SM OVC035
     FM280200 VRB03KT 5SM -SHRA OVC035=

USA.gov is the U.S. government's official web portal to all federal, state and local government web resources and services.